Time;durP1;ratioP1;P1;durP2;ratioP2;P2;SDS_P1;SDS_P2;PMS_P1;PMS_P2;Temp;Humidity;BMP_temperature;BMP_pressure;BME280_temperature;BME280_humidity;BME280_pressure;Samples;Min_cycle;Max_cycle;Signal;HPM_P1;HPM_P2
2024/03/25 00:00:27;;;;;;;5.47;3.85;;;;;;;5.22;100.00;99932.97;10269203;28;20382;-73
2024/03/25 00:05:25;;;;;;;4.72;4.03;;;;;;;5.30;100.00;99938.81;10277624;28;20409;-73
2024/03/25 00:10:20;;;;;;;8.75;4.13;;;;;;;5.30;100.00;99949.63;10269860;28;20548;-72
2024/03/25 00:15:16;;;;;;;7.97;3.90;;;;;;;5.27;100.00;99954.56;10278898;28;20052;-72
2024/03/25 00:20:12;;;;;;;9.85;4.82;;;;;;;5.28;100.00;99958.88;10274211;28;20187;-75
2024/03/25 00:25:08;;;;;;;8.32;3.85;;;;;;;5.24;100.00;99979.56;10258428;28;20080;-73
2024/03/25 00:30:05;;;;;;;8.00;4.25;;;;;;;5.32;100.00;99974.53;10274568;28;20045;-73
2024/03/25 00:35:00;;;;;;;7.57;4.20;;;;;;;5.31;100.00;99967.50;10272067;28;20350;-74
2024/03/25 00:39:56;;;;;;;9.52;4.10;;;;;;;5.41;100.00;99989.00;10284261;28;20046;-73
2024/03/25 00:44:51;;;;;;;5.90;3.85;;;;;;;5.36;100.00;99980.94;10276781;28;20052;-73
2024/03/25 00:49:47;;;;;;;8.15;4.10;;;;;;;5.27;100.00;99989.78;10274353;28;20041;-74
2024/03/25 00:54:42;;;;;;;10.20;3.88;;;;;;;5.24;100.00;100000.41;10261646;28;20064;-73
2024/03/25 00:59:39;;;;;;;10.15;3.65;;;;;;;5.22;100.00;100008.88;10260971;28;20104;-73
2024/03/25 01:04:34;;;;;;;13.18;4.72;;;;;;;5.23;100.00;100013.16;10282418;28;20064;-73
2024/03/25 01:09:30;;;;;;;11.02;6.22;;;;;;;5.13;100.00;100016.09;10257663;28;20033;-74
2024/03/25 01:14:26;;;;;;;9.15;3.65;;;;;;;4.98;100.00;100010.91;10281888;28;20048;-75
2024/03/25 01:19:21;;;;;;;9.55;3.63;;;;;;;4.85;100.00;100016.00;10269090;28;20549;-75
2024/03/25 01:24:17;;;;;;;12.32;3.38;;;;;;;4.76;100.00;100011.56;10244825;28;20041;-73
2024/03/25 01:29:12;;;;;;;11.77;3.67;;;;;;;4.70;100.00;100013.53;10266587;28;20056;-73
2024/03/25 01:34:08;;;;;;;12.73;3.63;;;;;;;4.74;100.00;99997.53;10272882;28;20037;-75
2024/03/25 01:39:05;;;;;;;11.32;3.50;;;;;;;4.72;100.00;100005.94;10261123;28;20033;-74
2024/03/25 01:44:01;;;;;;;16.25;4.00;;;;;;;4.78;100.00;99999.34;10260435;28;20076;-74
2024/03/25 01:48:58;;;;;;;14.20;3.92;;;;;;;4.77;100.00;100011.25;10271853;28;20044;-72
2024/03/25 01:53:55;;;;;;;11.68;4.38;;;;;;;4.78;100.00;100009.34;10267588;28;20037;-72
2024/03/25 01:58:50;;;;;;;10.30;3.75;;;;;;;4.85;100.00;100007.09;10262050;28;20064;-75
2024/03/25 02:03:47;;;;;;;7.32;4.35;;;;;;;4.90;100.00;100011.59;10273145;28;20676;-72
2024/03/25 02:08:43;;;;;;;11.32;4.53;;;;;;;4.89;100.00;100016.22;10261884;28;20076;-74
2024/03/25 02:13:39;;;;;;;9.65;4.47;;;;;;;4.85;100.00;100029.56;10265790;28;20209;-72
2024/03/25 02:18:35;;;;;;;13.30;4.57;;;;;;;4.89;100.00;100042.50;10257669;28;20587;-71
2024/03/25 02:23:31;;;;;;;10.30;4.05;;;;;;;4.73;100.00;100045.44;10267339;28;20041;-72
2024/03/25 02:28:27;;;;;;;7.38;3.20;;;;;;;4.62;100.00;100049.44;10263120;28;20083;-72
2024/03/25 02:33:22;;;;;;;8.98;4.10;;;;;;;4.56;100.00;100050.59;10267220;28;20465;-74
2024/03/25 02:38:19;;;;;;;7.82;3.47;;;;;;;4.46;100.00;100040.72;10272253;28;20044;-74
2024/03/25 02:43:16;;;;;;;5.30;3.15;;;;;;;4.42;100.00;100050.53;10257758;28;20057;-73
2024/03/25 02:48:11;;;;;;;8.55;4.63;;;;;;;4.33;100.00;100053.06;10274126;28;20075;-73
2024/03/25 02:53:07;;;;;;;6.28;3.60;;;;;;;4.33;100.00;100052.28;10271486;28;20520;-74
2024/03/25 02:58:02;;;;;;;6.40;3.28;;;;;;;4.32;100.00;100056.91;10269188;28;20079;-74
2024/03/25 03:02:58;;;;;;;8.68;3.67;;;;;;;4.34;100.00;100060.13;10282138;28;20041;-74
2024/03/25 03:07:54;;;;;;;15.63;4.10;;;;;;;4.33;100.00;100060.41;10281506;28;20049;-73
2024/03/25 03:12:49;;;;;;;9.05;3.80;;;;;;;4.35;100.00;100069.84;10274614;28;20048;-74
2024/03/25 03:17:45;;;;;;;8.32;3.78;;;;;;;4.40;100.00;100086.00;10265018;28;20124;-74
2024/03/25 03:22:40;;;;;;;7.28;3.40;;;;;;;4.40;100.00;100080.59;10284614;28;20064;-75
2024/03/25 03:27:36;;;;;;;8.90;4.07;;;;;;;4.28;100.00;100093.75;10282838;28;20123;-75
2024/03/25 03:32:31;;;;;;;9.50;3.55;;;;;;;4.34;100.00;100108.84;10274582;28;20057;-75
2024/03/25 03:37:27;;;;;;;10.48;3.53;;;;;;;4.41;100.00;100111.19;10272384;28;20045;-73
2024/03/25 03:42:22;;;;;;;9.82;3.88;;;;;;;4.41;100.00;100113.91;10279334;28;20057;-72
2024/03/25 03:47:18;;;;;;;8.27;3.35;;;;;;;4.43;100.00;100127.91;10277687;28;20045;-74
2024/03/25 03:52:13;;;;;;;8.27;3.95;;;;;;;4.46;100.00;100150.91;10282364;28;20049;-74
2024/03/25 03:57:09;;;;;;;7.18;3.20;;;;;;;4.40;100.00;100148.25;10277882;28;20175;-73
2024/03/25 04:02:05;;;;;;;10.13;3.67;;;;;;;4.38;100.00;100155.84;10269399;28;20041;-72
2024/03/25 04:07:01;;;;;;;11.00;3.95;;;;;;;4.36;100.00;100149.94;10270405;28;20046;-73
2024/03/25 04:11:57;;;;;;;5.75;4.03;;;;;;;4.41;100.00;100168.03;10279193;28;20073;-71
2024/03/25 04:16:53;;;;;;;5.57;4.40;;;;;;;4.46;100.00;100180.69;10268772;28;20045;-72
2024/03/25 04:21:48;;;;;;;6.75;3.53;;;;;;;4.41;100.00;100189.69;10275955;28;20045;-71
2024/03/25 04:26:44;;;;;;;8.38;3.65;;;;;;;4.41;100.00;100201.31;10272645;28;20128;-71
2024/03/25 04:31:40;;;;;;;8.77;4.10;;;;;;;4.46;100.00;100208.56;10273258;28;20070;-72
2024/03/25 04:36:35;;;;;;;9.75;4.60;;;;;;;4.50;100.00;100219.59;10253304;28;20124;-73
2024/03/25 04:41:31;;;;;;;7.10;4.40;;;;;;;4.53;100.00;100235.28;10256778;28;20124;-72
2024/03/25 04:46:26;;;;;;;5.60;4.97;;;;;;;4.55;100.00;100233.91;10273974;28;20129;-72
2024/03/25 04:51:22;;;;;;;7.28;4.50;;;;;;;4.54;100.00;100248.53;10264728;28;20064;-73
2024/03/25 04:56:18;;;;;;;7.22;4.85;;;;;;;4.53;100.00;100267.78;10253704;28;20134;-70
2024/03/25 05:01:13;;;;;;;9.85;5.03;;;;;;;4.54;100.00;100274.78;10257785;28;20433;-71
2024/03/25 05:06:11;;;;;;;10.13;4.70;;;;;;;4.58;100.00;100270.44;10251806;28;20045;-70
2024/03/25 05:11:06;;;;;;;4.88;4.32;;;;;;;4.58;100.00;100275.84;10250817;28;20126;-72
2024/03/25 05:16:02;;;;;;;6.15;4.68;;;;;;;4.63;100.00;100278.47;10267285;28;20700;-71
2024/03/25 05:20:57;;;;;;;6.07;4.38;;;;;;;4.60;100.00;100284.47;10267346;28;20037;-70
2024/03/25 05:25:53;;;;;;;6.28;5.68;;;;;;;4.60;100.00;100284.47;10256371;28;20058;-71
2024/03/25 05:30:49;;;;;;;5.82;5.18;;;;;;;4.31;100.00;100292.63;10259288;28;20094;-73
2024/03/25 05:35:45;;;;;;;7.20;5.60;;;;;;;4.24;100.00;100295.66;10261275;28;20081;-71
2024/03/25 05:40:40;;;;;;;8.90;5.10;;;;;;;4.26;100.00;100298.91;10245749;28;20048;-71
2024/03/25 05:45:36;;;;;;;11.50;6.15;;;;;;;4.21;100.00;100304.38;10252487;28;20045;-70
2024/03/25 05:50:32;;;;;;;7.43;5.75;;;;;;;4.28;100.00;100312.97;10276589;28;20048;-73
2024/03/25 05:55:27;;;;;;;6.15;5.10;;;;;;;4.39;100.00;100313.69;10248452;28;20591;-71
2024/03/25 06:00:24;;;;;;;7.18;5.63;;;;;;;4.47;100.00;100313.03;10254624;28;20471;-73
2024/03/25 06:05:20;;;;;;;9.02;6.78;;;;;;;4.62;100.00;100314.78;10274858;28;20054;-72
2024/03/25 06:10:15;;;;;;;7.35;6.75;;;;;;;4.71;100.00;100318.47;10268298;28;20049;-73
2024/03/25 06:15:11;;;;;;;7.50;6.90;;;;;;;4.99;100.00;100324.09;10272286;28;20071;-73
2024/03/25 06:20:07;;;;;;;9.82;8.02;;;;;;;5.02;100.00;100334.38;10278609;28;20127;-73
2024/03/25 06:25:03;;;;;;;8.05;7.10;;;;;;;4.94;100.00;100343.13;10266817;28;20060;-73
2024/03/25 06:34:14;;;;;;;8.55;6.80;;;;;;;4.93;100.00;100352.34;10262472;28;20052;-73
2024/03/25 06:35:14;;;;;;;10.80;6.93;;;;;;;4.97;100.00;100356.13;10263472;28;20091;-74
2024/03/25 06:40:10;;;;;;;8.63;6.70;;;;;;;4.90;100.00;100358.34;10260457;28;20061;-73
2024/03/25 06:45:06;;;;;;;9.30;5.97;;;;;;;5.02;100.00;100373.09;10270208;28;20538;-73
2024/03/25 06:50:02;;;;;;;8.65;6.30;;;;;;;4.99;100.00;100373.69;10274262;28;20041;-73
2024/03/25 06:54:57;;;;;;;11.70;6.93;;;;;;;5.15;100.00;100387.88;10260102;28;20067;-73
2024/03/25 06:59:53;;;;;;;8.50;6.22;;;;;;;5.00;100.00;100390.75;10261627;28;20459;-73
2024/03/25 07:04:49;;;;;;;6.78;5.55;;;;;;;4.93;100.00;100391.09;10268881;28;20370;-73
2024/03/25 07:09:44;;;;;;;5.68;5.18;;;;;;;5.09;100.00;100409.91;10269925;28;20439;-73
2024/03/25 07:14:40;;;;;;;7.28;4.80;;;;;;;5.10;100.00;100406.88;10263604;28;20043;-73
2024/03/25 07:19:35;;;;;;;10.65;5.40;;;;;;;5.16;100.00;100416.56;10283231;28;20112;-72
2024/03/25 07:24:31;;;;;;;10.50;6.25;;;;;;;5.46;100.00;100409.19;10263705;28;20051;-74
2024/03/25 07:29:26;;;;;;;8.48;5.60;;;;;;;5.36;100.00;100425.56;10274136;28;20132;-72
2024/03/25 07:34:22;;;;;;;5.82;5.18;;;;;;;5.15;100.00;100420.41;10265915;28;20041;-71
2024/03/25 07:39:17;;;;;;;10.57;5.13;;;;;;;5.20;100.00;100422.25;10280355;28;20033;-73
2024/03/25 07:44:13;;;;;;;8.48;5.22;;;;;;;5.55;100.00;100429.13;10270090;28;20068;-71
2024/03/25 07:49:08;;;;;;;8.88;5.43;;;;;;;5.58;100.00;100433.97;10266011;28;20148;-74
2024/03/25 07:54:04;;;;;;;10.05;5.55;;;;;;;5.50;100.00;100437.34;10260551;28;20045;-73
2024/03/25 07:59:00;;;;;;;9.65;6.25;;;;;;;5.55;100.00;100448.09;10270627;28;20041;-73
2024/03/25 08:03:56;;;;;;;7.97;5.95;;;;;;;5.45;100.00;100445.50;10260042;28;20084;-70
2024/03/25 08:08:51;;;;;;;8.30;5.57;;;;;;;5.44;100.00;100457.47;10273509;28;20045;-72
2024/03/25 08:13:47;;;;;;;9.30;5.80;;;;;;;5.54;100.00;100460.03;10284153;28;20049;-72
2024/03/25 08:18:42;;;;;;;12.88;6.15;;;;;;;5.44;100.00;100465.59;10269426;28;20049;-72
2024/03/25 08:23:38;;;;;;;7.75;6.22;;;;;;;5.34;100.00;100471.13;10265172;28;20075;-72
2024/03/25 08:28:34;;;;;;;12.88;5.78;;;;;;;5.42;100.00;100465.06;10276819;28;20812;-72
2024/03/25 08:33:29;;;;;;;10.60;6.53;;;;;;;5.53;100.00;100472.00;10274320;28;20524;-71
2024/03/25 08:38:25;;;;;;;12.20;6.38;;;;;;;5.89;100.00;100482.38;10282146;28;20036;-71
2024/03/25 08:43:20;;;;;;;9.30;5.82;;;;;;;6.10;100.00;100483.75;10267385;28;20048;-71
2024/03/25 08:48:17;;;;;;;14.20;6.03;;;;;;;6.21;100.00;100478.16;10257136;28;20136;-71
2024/03/25 08:53:12;;;;;;;10.88;6.97;;;;;;;6.30;100.00;100468.25;10270845;28;20519;-72
2024/03/25 08:58:08;;;;;;;10.10;6.53;;;;;;;6.37;100.00;100471.41;10274374;28;20136;-71
2024/03/25 09:03:04;;;;;;;13.50;6.35;;;;;;;6.09;100.00;100476.69;10287310;28;20052;-72
2024/03/25 09:08:00;;;;;;;11.13;6.18;;;;;;;5.99;100.00;100481.50;10274710;28;20083;-71
2024/03/25 09:12:56;;;;;;;6.22;5.53;;;;;;;5.86;100.00;100488.41;10270518;28;20049;-72
2024/03/25 09:17:51;;;;;;;10.35;6.72;;;;;;;5.87;100.00;100479.16;10270086;28;20041;-72
2024/03/25 09:22:50;;;;;;;17.27;6.88;;;;;;;6.21;100.00;100475.47;10261940;28;20574;-71
2024/03/25 09:27:49;;;;;;;10.23;7.32;;;;;;;6.62;100.00;100477.53;10277812;28;20040;-71
2024/03/25 09:32:45;;;;;;;8.10;7.25;;;;;;;6.56;100.00;100484.94;10276675;28;20072;-72
2024/03/25 09:37:40;;;;;;;8.32;7.30;;;;;;;6.81;100.00;100470.13;10254495;28;20762;-72
2024/03/25 09:42:46;;;;;;;8.93;6.20;;;;;;;7.00;100.00;100474.72;10280757;28;20043;-71
2024/03/25 09:47:46;;;;;;;9.23;7.00;;;;;;;6.94;100.00;100474.00;10267593;28;20068;-71
2024/03/25 09:52:41;;;;;;;10.88;7.15;;;;;;;7.03;100.00;100476.81;10253953;28;20081;-71
2024/03/25 09:57:38;;;;;;;11.25;7.03;;;;;;;7.12;100.00;100475.03;10274833;28;20045;-71
2024/03/25 10:02:36;;;;;;;9.82;7.47;;;;;;;7.62;100.00;100477.88;10266516;28;20065;-72
2024/03/25 10:07:32;;;;;;;8.48;6.82;;;;;;;7.18;100.00;100503.75;10249557;28;20072;-72
2024/03/25 10:12:28;;;;;;;10.45;7.45;;;;;;;6.58;100.00;100509.13;10251909;28;20065;-72
2024/03/25 10:17:23;;;;;;;9.77;7.20;;;;;;;6.65;100.00;100498.69;10266215;28;20164;-72
2024/03/25 10:22:19;;;;;;;10.65;7.38;;;;;;;7.13;100.00;100498.41;10274323;28;20053;-71
2024/03/25 10:27:20;;;;;;;9.25;6.95;;;;;;;7.49;100.00;100489.56;10272557;28;20068;-72
2024/03/25 10:32:15;;;;;;;8.73;6.70;;;;;;;7.68;100.00;100475.81;10267107;28;20064;-71
2024/03/25 10:37:12;;;;;;;13.75;7.18;;;;;;;8.59;100.00;100478.44;10258577;28;20467;-72
2024/03/25 10:42:12;;;;;;;10.98;6.95;;;;;;;9.27;100.00;100476.38;10260923;28;20654;-72
2024/03/25 10:47:11;;;;;;;9.38;6.82;;;;;;;9.46;100.00;100473.41;10262249;28;20449;-71
2024/03/25 10:52:08;;;;;;;11.55;7.50;;;;;;;10.17;100.00;100469.69;10261611;28;20464;-72
2024/03/25 10:57:05;;;;;;;13.95;7.45;;;;;;;8.26;100.00;100498.81;10267913;28;20045;-72
2024/03/25 11:02:01;;;;;;;10.38;8.88;;;;;;;8.01;100.00;100495.56;10257761;28;20075;-74
2024/03/25 11:07:15;;;;;;;13.48;7.70;;;;;;;7.71;100.00;100486.94;10270174;28;20157;-74
2024/03/25 11:12:12;;;;;;;9.98;7.88;;;;;;;7.48;100.00;100487.94;10258612;28;20468;-70
2024/03/25 11:17:16;;;;;;;12.65;7.97;;;;;;;7.69;100.00;100486.41;10264242;28;20123;-73
2024/03/25 11:22:13;;;;;;;11.65;7.50;;;;;;;7.91;100.00;100493.03;10259268;28;20068;-73
2024/03/25 11:27:08;;;;;;;10.07;7.07;;;;;;;8.11;100.00;100489.06;10265880;28;20134;-73
2024/03/25 11:32:05;;;;;;;10.63;7.68;;;;;;;7.87;100.00;100489.34;10268142;28;20044;-73
2024/03/25 11:37:01;;;;;;;12.20;7.63;;;;;;;7.94;100.00;100478.84;10268028;28;20523;-73
2024/03/25 11:41:57;;;;;;;10.57;6.90;;;;;;;8.01;100.00;100482.75;10284327;28;20076;-73
2024/03/25 11:46:55;;;;;;;7.80;6.70;;;;;;;8.65;100.00;100473.66;10288933;28;20052;-73
2024/03/25 11:51:50;;;;;;;7.13;6.47;;;;;;;10.10;100.00;100472.09;10280304;28;20076;-73
2024/03/25 11:56:47;;;;;;;11.10;6.60;;;;;;;10.45;100.00;100469.41;10251705;28;20045;-71
2024/03/25 12:01:42;;;;;;;11.93;6.40;;;;;;;11.34;100.00;100472.38;10269293;28;20076;-72
2024/03/25 12:06:38;;;;;;;11.80;5.47;;;;;;;10.94;100.00;100464.47;10271484;28;20041;-72
2024/03/25 12:11:33;;;;;;;14.00;7.75;;;;;;;10.33;100.00;100461.84;10273304;28;20095;-72
2024/03/25 12:16:29;;;;;;;12.93;6.97;;;;;;;11.34;100.00;100467.69;10267587;28;20045;-72
2024/03/25 12:21:25;;;;;;;6.63;5.70;;;;;;;10.83;100.00;100469.47;10266029;28;20061;-71
2024/03/25 12:26:21;;;;;;;8.93;5.78;;;;;;;10.79;100.00;100456.78;10271863;28;20065;-72
2024/03/25 12:31:17;;;;;;;6.25;5.65;;;;;;;9.79;100.00;100470.28;10267636;28;20037;-71
2024/03/25 12:36:12;;;;;;;11.00;6.40;;;;;;;8.84;100.00;100468.00;10247409;28;20049;-73
2024/03/25 12:41:10;;;;;;;6.72;5.80;;;;;;;9.40;100.00;100466.50;10270010;28;20044;-74
2024/03/25 12:46:06;;;;;;;10.07;6.03;;;;;;;12.05;100.00;100452.50;10259225;28;20464;-73
2024/03/25 12:51:02;;;;;;;9.85;6.03;;;;;;;14.20;100.00;100450.59;10274018;28;20045;-72
2024/03/25 12:55:57;;;;;;;6.50;5.40;;;;;;;15.39;94.64;100444.34;10257369;28;20124;-71
2024/03/25 13:00:53;;;;;;;7.15;5.50;;;;;;;16.92;94.54;100437.72;10274141;28;20596;-72
2024/03/25 13:05:48;;;;;;;7.68;6.10;;;;;;;15.81;95.64;100434.69;10263431;28;20045;-72
2024/03/25 13:10:44;;;;;;;8.65;6.22;;;;;;;17.72;80.04;100440.56;10267578;28;20481;-72
2024/03/25 13:15:40;;;;;;;8.15;5.97;;;;;;;18.41;79.01;100431.19;10259161;28;20049;-71
2024/03/25 13:20:35;;;;;;;10.57;6.20;;;;;;;12.82;100.00;100447.44;10259377;28;20552;-72
2024/03/25 13:25:32;;;;;;;8.27;5.40;;;;;;;10.68;100.00;100457.16;10274831;28;20068;-72
2024/03/25 13:30:31;;;;;;;14.10;6.55;;;;;;;9.79;100.00;100459.34;10264304;28;20064;-72
2024/03/25 13:35:27;;;;;;;7.90;6.63;;;;;;;9.82;100.00;100452.47;10262914;28;20122;-72
2024/03/25 13:40:22;;;;;;;10.20;6.07;;;;;;;9.53;100.00;100458.50;10257464;28;20736;-72
2024/03/25 13:45:18;;;;;;;9.15;5.47;;;;;;;9.30;100.00;100452.31;10265405;28;20083;-72
2024/03/25 13:50:13;;;;;;;10.23;6.35;;;;;;;12.36;100.00;100449.31;10262697;28;20049;-71
2024/03/25 13:55:09;;;;;;;8.70;5.22;;;;;;;15.78;100.00;100449.97;10259224;28;20448;-71
2024/03/25 14:00:08;;;;;;;7.78;6.13;;;;;;;15.75;100.00;100447.94;10260938;28;20430;-71
2024/03/25 14:05:04;;;;;;;6.93;5.10;;;;;;;13.52;100.00;100438.38;10272071;28;20126;-72
2024/03/25 14:10:00;;;;;;;7.82;5.60;;;;;;;11.71;100.00;100443.34;10267501;28;20083;-73
2024/03/25 14:14:55;;;;;;;11.35;5.80;;;;;;;11.50;100.00;100437.03;10271181;28;20136;-71
2024/03/25 14:19:53;;;;;;;9.50;5.22;;;;;;;10.12;100.00;100439.81;10257582;28;20044;-74
2024/03/25 14:24:49;;;;;;;11.27;6.25;;;;;;;9.65;100.00;100429.50;10262563;28;20045;-74
2024/03/25 14:29:45;;;;;;;6.78;5.50;;;;;;;10.06;100.00;100427.44;10252023;28;20041;-74
2024/03/25 14:34:41;;;;;;;7.43;5.80;;;;;;;9.97;100.00;100423.88;10271264;28;20087;-73
2024/03/25 14:39:36;;;;;;;9.55;5.80;;;;;;;9.66;100.00;100411.19;10255391;28;20052;-73
2024/03/25 14:44:32;;;;;;;9.50;5.50;;;;;;;10.40;100.00;100414.91;10262135;28;20119;-73
2024/03/25 14:49:27;;;;;;;6.38;5.45;;;;;;;13.42;100.00;100403.13;10263004;28;20048;-73
2024/03/25 14:54:23;;;;;;;6.32;5.07;;;;;;;15.13;100.00;100401.63;10269332;28;20045;-72
2024/03/25 14:59:18;;;;;;;6.57;5.00;;;;;;;16.05;97.90;100390.31;10268669;28;20033;-71
2024/03/25 15:04:14;;;;;;;6.43;5.70;;;;;;;15.44;88.92;100388.16;10263703;28;20045;-73
2024/03/25 15:09:09;;;;;;;9.43;4.80;;;;;;;16.39;87.94;100385.06;10272039;28;20041;-72
2024/03/25 15:14:05;;;;;;;5.57;4.63;;;;;;;14.82;92.10;100385.91;10271554;28;20048;-72
2024/03/25 15:19:01;;;;;;;9.75;5.20;;;;;;;13.49;100.00;100389.63;10269947;28;20052;-71
2024/03/25 15:23:57;;;;;;;8.38;5.70;;;;;;;13.07;100.00;100392.59;10274641;28;20049;-71
2024/03/25 15:28:53;;;;;;;5.65;4.85;;;;;;;11.45;100.00;100390.69;10266204;28;20083;-71
2024/03/25 15:33:48;;;;;;;5.75;4.95;;;;;;;13.02;100.00;100379.91;10268993;28;20455;-71
2024/03/25 15:38:44;;;;;;;8.05;5.65;;;;;;;12.31;100.00;100372.00;10262884;28;20489;-71
2024/03/25 15:43:40;;;;;;;8.48;5.15;;;;;;;12.37;100.00;100365.97;10264912;28;20068;-71
2024/03/25 15:48:35;;;;;;;7.93;5.65;;;;;;;14.62;100.00;100370.44;10275997;28;20068;-71
2024/03/25 15:53:31;;;;;;;9.90;6.13;;;;;;;13.61;97.79;100366.81;10264787;28;20411;-71
2024/03/25 15:58:27;;;;;;;9.20;5.00;;;;;;;13.40;98.07;100362.28;10258930;28;20136;-71
2024/03/25 16:03:22;;;;;;;8.50;5.32;;;;;;;12.30;100.00;100368.44;10257224;28;20060;-71
2024/03/25 16:08:18;;;;;;;6.20;5.40;;;;;;;11.78;100.00;100372.41;10211272;28;66530;-73
2024/03/25 16:13:15;;;;;;;6.80;5.00;;;;;;;10.97;100.00;100381.75;10218855;28;20497;-73
2024/03/25 16:18:10;;;;;;;9.13;4.40;;;;;;;10.88;100.00;100383.72;10208624;28;20454;-74
2024/03/25 16:23:06;;;;;;;6.18;4.57;;;;;;;11.04;100.00;100376.56;10210457;28;20128;-73
2024/03/25 16:28:02;;;;;;;5.28;4.25;;;;;;;10.69;100.00;100376.72;10236358;28;20187;-73
2024/03/25 16:32:57;;;;;;;8.13;4.25;;;;;;;10.46;100.00;100380.78;10223033;28;20045;-73
2024/03/25 16:37:53;;;;;;;10.15;4.72;;;;;;;10.23;100.00;100374.69;10223265;28;20091;-73
2024/03/25 16:42:49;;;;;;;4.97;4.30;;;;;;;10.55;100.00;100376.09;10215869;28;20080;-73
2024/03/25 16:47:44;;;;;;;4.78;4.32;;;;;;;10.13;100.00;100364.91;10221027;28;20051;-73
2024/03/25 16:52:40;;;;;;;9.10;4.78;;;;;;;10.18;100.00;100372.94;10228674;28;20045;-73
2024/03/25 16:57:35;;;;;;;6.38;4.35;;;;;;;10.27;100.00;100360.06;10212317;28;20045;-74
2024/03/25 17:02:31;;;;;;;5.72;4.60;;;;;;;9.67;100.00;100360.91;10217514;28;20129;-72
2024/03/25 17:07:26;;;;;;;7.70;4.50;;;;;;;9.49;100.00;100354.63;10229302;28;20123;-72
2024/03/25 17:12:22;;;;;;;7.03;5.15;;;;;;;9.31;100.00;100361.19;10227880;28;20080;-72
2024/03/25 17:17:17;;;;;;;5.68;4.82;;;;;;;9.09;100.00;100359.34;10219474;28;20037;-72
2024/03/25 17:22:13;;;;;;;11.98;5.72;;;;;;;8.97;100.00;100362.69;10218835;28;20049;-72
2024/03/25 17:27:08;;;;;;;10.63;4.88;;;;;;;9.00;100.00;100362.84;10229726;28;20048;-72
2024/03/25 17:32:04;;;;;;;7.18;5.00;;;;;;;8.59;100.00;100368.63;10222715;28;20117;-72
2024/03/25 17:37:00;;;;;;;8.57;5.53;;;;;;;8.47;100.00;100371.09;10225939;28;20041;-72
2024/03/25 17:41:56;;;;;;;8.38;5.43;;;;;;;8.28;100.00;100369.34;10208863;28;20709;-69
2024/03/25 17:46:52;;;;;;;7.47;5.30;;;;;;;8.06;100.00;100356.56;10211681;28;20069;-72
2024/03/25 17:51:49;;;;;;;6.10;5.50;;;;;;;7.86;100.00;100357.84;10209280;28;20425;-72
2024/03/25 17:56:44;;;;;;;6.55;5.05;;;;;;;7.65;100.00;100367.59;10209747;28;20600;-72
2024/03/25 18:01:40;;;;;;;10.02;5.43;;;;;;;7.51;100.00;100368.44;10210752;28;20046;-73
2024/03/25 18:06:35;;;;;;;11.80;6.03;;;;;;;7.35;100.00;100364.44;10217441;28;20042;-72
2024/03/25 18:11:31;;;;;;;8.95;6.07;;;;;;;7.23;100.00;100367.66;10228175;28;20041;-72
2024/03/25 18:16:27;;;;;;;14.32;6.03;;;;;;;7.20;100.00;100371.00;10193726;28;20057;-72
2024/03/25 18:21:22;;;;;;;9.57;5.78;;;;;;;7.13;100.00;100374.13;10201625;28;20052;-72
2024/03/25 18:26:18;;;;;;;10.63;5.45;;;;;;;7.02;100.00;100366.50;10193568;28;20041;-72
2024/03/25 18:31:13;;;;;;;8.82;6.22;;;;;;;6.94;100.00;100376.97;10216792;28;20068;-72
2024/03/25 18:36:09;;;;;;;12.07;6.60;;;;;;;6.78;100.00;100372.91;10226390;28;20725;-72
2024/03/25 18:41:05;;;;;;;11.23;6.55;;;;;;;6.74;100.00;100377.34;10214972;28;20038;-72
2024/03/25 18:46:00;;;;;;;10.48;6.53;;;;;;;6.67;100.00;100382.38;10199389;28;20041;-71
2024/03/25 18:50:56;;;;;;;10.45;6.82;;;;;;;6.57;100.00;100382.53;10219465;28;20092;-71
2024/03/25 18:55:51;;;;;;;12.30;7.10;;;;;;;6.51;100.00;100382.63;10209243;28;20119;-71
2024/03/25 19:00:47;;;;;;;14.15;6.72;;;;;;;6.47;100.00;100376.16;10231610;28;20049;-73
2024/03/25 19:05:43;;;;;;;10.25;5.78;;;;;;;6.35;100.00;100370.41;10215861;28;20045;-72
2024/03/25 19:10:38;;;;;;;8.68;6.28;;;;;;;6.29;100.00;100377.84;10218926;28;20408;-72
2024/03/25 19:15:35;;;;;;;8.02;6.40;;;;;;;6.21;100.00;100372.28;10217172;28;20546;-73
2024/03/25 19:20:31;;;;;;;8.88;6.28;;;;;;;6.19;100.00;100382.63;10217234;28;20765;-72
2024/03/25 19:25:29;;;;;;;9.73;7.13;;;;;;;6.22;100.00;100376.59;10214662;28;20080;-72
2024/03/25 19:30:25;;;;;;;11.98;7.20;;;;;;;6.19;100.00;100378.00;10218407;28;20077;-72
2024/03/25 19:35:20;;;;;;;13.27;7.80;;;;;;;6.02;100.00;100383.19;10225076;28;20107;-72
2024/03/25 19:40:16;;;;;;;14.05;7.45;;;;;;;5.92;100.00;100378.69;10225751;28;20046;-72
2024/03/25 19:45:12;;;;;;;10.38;8.05;;;;;;;5.78;100.00;100383.22;10230277;28;20049;-72
2024/03/25 19:50:07;;;;;;;11.77;8.00;;;;;;;5.68;100.00;100390.41;10217677;28;20132;-73
2024/03/25 19:55:03;;;;;;;19.10;8.77;;;;;;;5.60;100.00;100393.00;10230534;28;20061;-72
2024/03/25 20:00:00;;;;;;;13.18;8.10;;;;;;;5.47;100.00;100400.72;10238353;28;20049;-72
2024/03/25 20:04:55;;;;;;;12.90;7.82;;;;;;;5.41;100.00;100406.53;10241188;28;20091;-72
2024/03/25 20:09:51;;;;;;;13.70;8.90;;;;;;;5.39;100.00;100408.72;10225894;28;20505;-73
2024/03/25 20:14:46;;;;;;;15.18;8.90;;;;;;;5.27;100.00;100401.81;10227660;28;20040;-72
2024/03/25 20:19:42;;;;;;;15.00;8.52;;;;;;;5.25;100.00;100392.38;10230865;28;20045;-72
2024/03/25 20:24:38;;;;;;;14.90;8.00;;;;;;;5.17;100.00;100396.50;10209973;28;20073;-73
2024/03/25 20:29:33;;;;;;;14.15;9.23;;;;;;;5.07;100.00;100392.00;10228240;28;20041;-72
2024/03/25 20:34:29;;;;;;;19.98;10.00;;;;;;;4.96;100.00;100392.41;10237514;28;20045;-72
2024/03/25 20:39:24;;;;;;;24.88;11.40;;;;;;;4.87;100.00;100396.84;10217216;28;20071;-72
2024/03/25 20:44:20;;;;;;;17.73;11.75;;;;;;;4.73;100.00;100402.94;10211591;28;20049;-73
2024/03/25 20:49:16;;;;;;;20.75;13.23;;;;;;;4.74;100.00;100404.56;10224750;28;20047;-73
2024/03/25 20:54:12;;;;;;;22.05;13.10;;;;;;;4.62;100.00;100407.66;10217674;28;20045;-72
2024/03/25 20:59:07;;;;;;;20.92;12.25;;;;;;;4.54;100.00;100412.88;10228097;28;20052;-71
2024/03/25 21:04:03;;;;;;;16.50;11.90;;;;;;;4.46;100.00;100405.38;10205106;28;20051;-73
2024/03/25 21:08:58;;;;;;;22.15;12.02;;;;;;;4.38;100.00;100406.78;10222209;28;20057;-72
2024/03/25 21:13:54;;;;;;;15.85;11.57;;;;;;;4.34;100.00;100401.16;10238925;28;20077;-72
2024/03/25 21:18:49;;;;;;;21.30;12.80;;;;;;;4.32;100.00;100397.91;10224546;28;20045;-72
2024/03/25 21:23:46;;;;;;;24.48;13.38;;;;;;;4.26;100.00;100399.03;10221007;28;20041;-71
2024/03/25 21:28:41;;;;;;;18.80;13.25;;;;;;;4.21;100.00;100401.78;10225933;28;20160;-72
2024/03/25 21:33:37;;;;;;;23.42;12.95;;;;;;;4.15;100.00;100397.50;10211622;28;20551;-73
2024/03/25 21:38:33;;;;;;;20.73;12.00;;;;;;;4.11;100.00;100388.34;10229358;28;20580;-72
2024/03/25 21:43:28;;;;;;;15.35;10.15;;;;;;;4.10;100.00;100392.13;10205267;28;20053;-74
2024/03/25 21:48:24;;;;;;;14.15;9.85;;;;;;;4.09;100.00;100393.25;10226651;28;20065;-74
2024/03/25 21:53:19;;;;;;;13.18;10.15;;;;;;;4.02;100.00;100392.75;10233112;28;20609;-73
2024/03/25 21:58:15;;;;;;;19.27;10.05;;;;;;;3.96;100.00;100398.19;10219393;28;20048;-72
2024/03/25 22:03:11;;;;;;;12.00;9.13;;;;;;;3.96;100.00;100400.88;10227134;28;20103;-73
2024/03/25 22:08:06;;;;;;;13.13;9.20;;;;;;;3.90;100.00;100403.91;10221881;28;20130;-71
2024/03/25 22:13:02;;;;;;;18.58;10.23;;;;;;;3.82;100.00;100399.91;10222717;28;20112;-71
2024/03/25 22:17:59;;;;;;;12.13;9.85;;;;;;;3.81;100.00;100403.72;10237257;28;20122;-72
2024/03/25 22:22:55;;;;;;;14.30;10.40;;;;;;;3.70;100.00;100402.16;10232558;28;20081;-72
2024/03/25 22:27:51;;;;;;;15.02;10.00;;;;;;;3.59;100.00;100391.38;10235231;28;20052;-72